createdAt,value
2018-06-28T00:00:18.145Z,79.19
2018-06-28T00:01:26.214Z,79.28
2018-06-28T00:02:34.272Z,79.48
2018-06-28T00:03:42.341Z,79.38
2018-06-28T00:04:50.397Z,78.23
2018-06-28T00:05:58.463Z,78.62
2018-06-28T00:07:06.525Z,78.62
2018-06-28T00:08:14.592Z,78.62
2018-06-28T00:09:22.662Z,77.95
2018-06-28T00:10:30.709Z,78.43
2018-06-28T00:11:38.777Z,78.62
2018-06-28T00:12:46.839Z,78.52
2018-06-28T00:13:54.921Z,78.81
2018-06-28T00:15:02.986Z,79.28
2018-06-28T00:16:11.042Z,79.48
2018-06-28T00:17:19.110Z,79.38
2018-06-28T00:18:27.161Z,79.28
2018-06-28T00:19:35.242Z,78.81
2018-06-28T00:20:43.364Z,78.81
2018-06-28T00:21:51.358Z,79.38
2018-06-28T00:22:59.436Z,78.52
2018-06-28T00:24:07.466Z,78.81
2018-06-28T00:25:15.557Z,79.10
2018-06-28T00:26:23.635Z,78.14
2018-06-28T00:27:31.705Z,78.81
2018-06-28T00:28:39.748Z,78.62
2018-06-28T00:29:47.807Z,79.00
2018-06-28T00:30:55.884Z,79.38
2018-06-28T00:32:03.943Z,79.38
2018-06-28T00:33:12.017Z,79.77
2018-06-28T00:34:20.085Z,79.38
2018-06-28T00:35:28.150Z,79.86
2018-06-28T00:36:36.312Z,78.91
2018-06-28T00:37:44.266Z,78.91
2018-06-28T00:38:52.340Z,79.38
2018-06-28T00:40:00.397Z,79.77
2018-06-28T00:41:08.462Z,79.10
2018-06-28T00:42:16.544Z,79.38
2018-06-28T00:43:24.595Z,79.48
2018-06-28T00:44:32.658Z,78.91
2018-06-28T00:45:40.722Z,78.91
2018-06-28T00:46:48.795Z,78.81
2018-06-28T00:47:56.835Z,78.72
2018-06-28T00:49:04.905Z,79.38
2018-06-28T00:50:12.972Z,78.52
2018-06-28T00:51:21.018Z,79.10
2018-06-28T00:52:29.164Z,78.91
2018-06-28T00:53:37.141Z,78.52
2018-06-28T00:54:45.236Z,78.72
2018-06-28T00:55:53.351Z,78.05
2018-06-28T00:57:01.365Z,78.23
2018-06-28T00:58:09.439Z,78.62
2018-06-28T00:59:17.464Z,78.91
2018-06-28T01:00:25.559Z,78.72
2018-06-28T01:01:33.635Z,78.72
2018-06-28T01:02:41.685Z,78.14
2018-06-28T01:03:49.746Z,78.14
2018-06-28T01:04:57.803Z,78.43
2018-06-28T01:06:05.875Z,78.14
2018-06-28T01:07:13.947Z,78.72
2018-06-28T01:08:22.018Z,79.28
2018-06-28T01:09:30.102Z,78.81
2018-06-28T01:10:38.159Z,78.62
2018-06-28T01:11:46.215Z,78.43
2018-06-28T01:12:54.271Z,79.48
2018-06-28T01:14:02.327Z,79.44
2018-06-28T01:15:10.396Z,78.58
2018-06-28T01:16:18.460Z,78.52
2018-06-28T01:17:26.647Z,78.62
2018-06-28T01:18:34.639Z,78.62
2018-06-28T01:19:42.659Z,78.72
2018-06-28T01:20:50.732Z,79.10
2018-06-28T01:21:58.795Z,78.81
2018-06-28T01:23:06.852Z,78.52
2018-06-28T01:24:14.935Z,79.28
2018-06-28T01:25:22.996Z,79.48
2018-06-28T01:26:31.063Z,79.10
2018-06-28T01:27:39.129Z,79.00
2018-06-28T01:28:47.195Z,79.48
2018-06-28T01:29:55.259Z,78.81
2018-06-28T01:31:03.319Z,79.10
2018-06-28T01:32:11.384Z,78.81
2018-06-28T01:33:19.453Z,79.38
2018-06-28T01:34:27.490Z,79.19
2018-06-28T01:35:35.576Z,79.57
2018-06-28T01:36:43.640Z,79.35
2018-06-28T01:37:51.701Z,79.15
2018-06-28T01:38:59.772Z,79.63
2018-06-28T01:40:07.831Z,79.72
2018-06-28T01:41:15.895Z,80.15
2018-06-28T01:42:23.977Z,80.20
2018-06-28T01:43:32.035Z,80.30
2018-06-28T01:44:40.077Z,79.82
2018-06-28T01:45:48.143Z,79.53
2018-06-28T01:46:56.372Z,79.48
2018-06-28T01:48:04.284Z,79.57
2018-06-28T01:49:12.345Z,79.86
2018-06-28T01:50:20.406Z,79.48
2018-06-28T01:51:28.494Z,79.19
2018-06-28T01:52:36.546Z,80.05
2018-06-28T01:53:44.595Z,80.11
2018-06-28T01:54:52.672Z,80.11
2018-06-28T01:56:00.736Z,80.77
2018-06-28T01:57:08.810Z,80.68
2018-06-28T01:58:16.845Z,80.49
2018-06-28T01:59:24.990Z,81.15
2018-06-28T02:00:32.995Z,80.68
2018-06-28T02:01:41.055Z,80.68
2018-06-28T02:02:49.122Z,80.68
2018-06-28T02:03:57.160Z,80.87
2018-06-28T02:05:05.243Z,80.77
2018-06-28T02:06:13.318Z,80.39
2018-06-28T02:07:21.397Z,80.49
2018-06-28T02:08:29.446Z,80.20
2018-06-28T02:09:37.477Z,80.20
2018-06-28T02:10:45.568Z,80.11
2018-06-28T02:11:53.644Z,80.30
2018-06-28T02:13:01.700Z,80.01
2018-06-28T02:14:09.764Z,80.01
2018-06-28T02:15:17.838Z,79.72
2018-06-28T02:16:25.903Z,80.20
2018-06-28T02:17:34.022Z,80.68
2018-06-28T02:18:42.047Z,80.01
2018-06-28T02:19:50.105Z,80.30
2018-06-28T02:20:58.183Z,79.91
2018-06-28T02:22:06.238Z,80.96
2018-06-28T02:23:14.317Z,80.01
2018-06-28T02:24:22.379Z,80.30
2018-06-28T02:25:30.437Z,80.20
2018-06-28T02:26:38.509Z,79.72
2018-06-28T02:27:46.578Z,79.06
2018-06-28T02:28:54.641Z,79.35
2018-06-28T02:30:02.714Z,79.53
2018-06-28T02:31:10.780Z,79.38
2018-06-28T02:32:18.842Z,78.81
2018-06-28T02:33:26.888Z,79.38
2018-06-28T02:34:34.979Z,79.19
2018-06-28T02:35:43.038Z,79.00
2018-06-28T02:36:51.092Z,79.38
2018-06-28T02:37:59.162Z,79.38
2018-06-28T02:39:07.206Z,79.48
2018-06-28T02:40:15.301Z,79.25
2018-06-28T02:41:23.362Z,79.38
2018-06-28T02:42:31.423Z,79.86
2018-06-28T02:43:39.484Z,79.57
2018-06-28T02:44:47.530Z,79.72
2018-06-28T02:45:55.622Z,79.25
2018-06-28T02:47:03.684Z,79.48
2018-06-28T02:48:11.756Z,80.30
2018-06-28T02:49:19.836Z,79.91
2018-06-28T02:50:27.888Z,79.57
2018-06-28T02:51:35.959Z,80.30
2018-06-28T02:52:44.022Z,80.96
2018-06-28T02:53:52.114Z,80.01
2018-06-28T02:55:00.151Z,80.30
2018-06-28T02:56:08.230Z,80.11
2018-06-28T02:57:16.290Z,80.68
2018-06-28T02:58:24.362Z,80.68
2018-06-28T02:59:32.411Z,80.58
2018-06-28T03:00:40.482Z,80.58
2018-06-28T03:01:48.554Z,80.77
2018-06-28T03:02:56.625Z,81.06
2018-06-28T03:04:04.679Z,81.35
2018-06-28T03:05:12.762Z,81.15
2018-06-28T03:06:20.805Z,80.77
2018-06-28T03:07:28.887Z,80.87
2018-06-28T03:08:36.949Z,80.87
2018-06-28T03:09:44.996Z,81.35
2018-06-28T03:10:53.073Z,81.06
2018-06-28T03:12:01.146Z,81.15
2018-06-28T03:13:09.199Z,80.96
2018-06-28T03:14:19.036Z,80.96
2018-06-28T03:15:25.334Z,80.77
2018-06-28T03:16:33.395Z,80.96
2018-06-28T03:17:41.479Z,81.63
2018-06-28T03:18:49.526Z,81.44
2018-06-28T03:19:57.582Z,81.15
2018-06-28T03:21:05.677Z,81.54
2018-06-28T03:22:13.738Z,81.06
2018-06-28T03:23:21.806Z,81.35
2018-06-28T03:24:29.880Z,81.54
2018-06-28T03:25:37.934Z,81.25
2018-06-28T03:26:45.998Z,81.06
2018-06-28T03:27:54.074Z,80.96
2018-06-28T03:29:02.134Z,80.87
2018-06-28T03:30:10.199Z,81.15
2018-06-28T03:31:18.266Z,81.25
2018-06-28T03:32:26.350Z,81.15
2018-06-28T03:33:34.441Z,81.06
2018-06-28T03:34:42.457Z,81.35
2018-06-28T03:35:50.534Z,80.49
2018-06-28T03:36:58.597Z,80.87
2018-06-28T03:38:06.868Z,81.25
2018-06-28T03:39:14.722Z,81.06
2018-06-28T03:40:22.776Z,81.35
2018-06-28T03:41:30.845Z,81.15
2018-06-28T03:42:38.916Z,81.35
2018-06-28T03:43:46.946Z,81.82
2018-06-28T03:44:55.032Z,81.82
2018-06-28T03:46:03.167Z,81.44
2018-06-28T03:47:11.168Z,81.73
2018-06-28T03:48:19.237Z,81.92
2018-06-28T03:49:27.679Z,81.92
2018-06-28T03:50:35.369Z,82.30
2018-06-28T03:51:43.496Z,81.63
2018-06-28T03:52:51.506Z,81.63
2018-06-28T03:53:59.557Z,82.40
2018-06-28T03:55:07.590Z,82.30
2018-06-28T03:56:15.684Z,82.20
2018-06-28T03:57:23.780Z,82.87
2018-06-28T03:58:31.821Z,82.01
2018-06-28T03:59:39.881Z,82.11
2018-06-28T04:00:49.533Z,81.92
2018-06-28T04:01:56.014Z,81.92
2018-06-28T04:03:04.066Z,82.20
2018-06-28T04:04:12.259Z,82.40
2018-06-28T04:05:20.201Z,82.40
2018-06-28T04:06:28.273Z,82.30
2018-06-28T04:07:36.321Z,82.30
2018-06-28T04:08:44.401Z,82.40
2018-06-28T04:09:52.447Z,82.87
2018-06-28T04:11:00.574Z,82.01
2018-06-28T04:12:08.649Z,82.49
2018-06-28T04:13:16.972Z,82.11
2018-06-28T04:14:24.715Z,83.35
2018-06-28T04:15:32.801Z,82.78
2018-06-28T04:16:40.893Z,81.73
2018-06-28T04:17:48.908Z,82.68
2018-06-28T04:18:56.957Z,82.59
2018-06-28T04:20:05.038Z,82.97
2018-06-28T04:21:13.105Z,83.44
2018-06-28T04:22:21.396Z,82.49
2018-06-28T04:23:29.225Z,82.40
2018-06-28T04:24:37.281Z,82.40
2018-06-28T04:25:45.372Z,82.97
2018-06-28T04:26:53.442Z,82.49
2018-06-28T04:28:01.512Z,82.97
2018-06-28T04:29:09.573Z,82.87
2018-06-28T04:30:17.603Z,83.16
2018-06-28T04:31:25.697Z,82.68
2018-06-28T04:32:33.749Z,82.01
2018-06-28T04:33:41.811Z,81.92
2018-06-28T04:34:49.904Z,82.68
2018-06-28T04:35:57.949Z,82.30
2018-06-28T04:37:05.992Z,81.73
2018-06-28T04:38:14.086Z,81.63
2018-06-28T04:39:22.144Z,81.54
2018-06-28T04:40:30.202Z,81.20
2018-06-28T04:41:38.277Z,81.10
2018-06-28T04:42:46.336Z,80.77
2018-06-28T04:43:54.403Z,80.81
2018-06-28T04:45:02.459Z,81.38
2018-06-28T04:46:10.528Z,80.62
2018-06-28T04:47:18.790Z,80.91
2018-06-28T04:48:26.653Z,80.62
2018-06-28T04:49:34.719Z,80.53
2018-06-28T04:50:42.772Z,80.24
2018-06-28T04:51:50.846Z,80.15
2018-06-28T04:52:58.919Z,80.33
2018-06-28T04:54:07.082Z,80.81
2018-06-28T04:55:15.637Z,80.62
2018-06-28T04:56:23.174Z,80.53
2018-06-28T04:57:31.175Z,79.67
2018-06-28T04:58:39.248Z,79.57
2018-06-28T04:59:47.281Z,79.43
2018-06-28T05:00:55.368Z,78.91
2018-06-28T05:02:03.427Z,79.52
2018-06-28T05:03:11.913Z,79.33
2018-06-28T05:04:19.588Z,79.43
2018-06-28T05:05:27.620Z,79.61
2018-06-28T05:06:35.697Z,79.14
2018-06-28T05:07:43.779Z,78.47
2018-06-28T05:08:51.851Z,79.04
2018-06-28T05:09:59.915Z,78.56
2018-06-28T05:11:08.050Z,77.17
2018-06-28T05:12:16.034Z,75.78
2018-06-28T05:13:24.113Z,74.85
2018-06-28T05:14:32.158Z,75.43
2018-06-28T05:15:40.278Z,76.06
2018-06-28T05:16:48.312Z,76.06
2018-06-28T05:17:56.373Z,76.54
2018-06-28T05:19:04.435Z,76.54
2018-06-28T05:20:12.575Z,76.60
2018-06-28T05:21:20.642Z,76.82
2018-06-28T05:22:29.251Z,77.36
2018-06-28T05:23:36.839Z,77.08
2018-06-28T05:24:44.905Z,76.60
2018-06-28T05:25:52.824Z,76.79
2018-06-28T05:27:00.891Z,76.31
2018-06-28T05:28:08.965Z,76.40
2018-06-28T05:29:17.171Z,76.69
2018-06-28T05:30:25.094Z,76.88
2018-06-28T05:31:33.134Z,76.73
2018-06-28T05:32:41.215Z,77.08
2018-06-28T05:33:49.279Z,76.54
2018-06-28T05:34:57.377Z,76.35
2018-06-28T05:36:05.395Z,76.45
2018-06-28T05:37:13.481Z,76.25
2018-06-28T05:38:21.542Z,75.96
2018-06-28T05:39:29.606Z,76.06
2018-06-28T05:40:37.786Z,76.64
2018-06-28T05:41:45.760Z,76.06
2018-06-28T05:42:53.814Z,75.59
2018-06-28T05:44:01.879Z,75.20
2018-06-28T05:45:09.935Z,74.44
2018-06-28T05:46:18.004Z,76.06
2018-06-28T05:47:26.060Z,76.06
2018-06-28T05:48:34.135Z,75.20
2018-06-28T05:49:42.197Z,75.10
2018-06-28T05:50:50.261Z,75.78
2018-06-28T05:51:58.332Z,74.53
2018-06-28T05:53:06.401Z,74.76
2018-06-28T05:54:14.483Z,75.52
2018-06-28T05:55:22.540Z,75.91
2018-06-28T05:56:30.601Z,75.62
2018-06-28T05:57:38.677Z,75.62
2018-06-28T05:58:46.723Z,75.05
2018-06-28T05:59:54.808Z,74.19
2018-06-28T06:01:02.859Z,74.76
2018-06-28T06:02:10.930Z,73.99
2018-06-28T06:03:19.002Z,74.19
2018-06-28T06:04:27.033Z,74.09
2018-06-28T06:05:35.126Z,75.05
2018-06-28T06:06:43.207Z,74.85
2018-06-28T06:07:51.262Z,74.57
2018-06-28T06:08:59.327Z,74.66
2018-06-28T06:10:07.375Z,75.43
2018-06-28T06:11:15.472Z,74.28
2018-06-28T06:12:23.528Z,74.57
2018-06-28T06:13:31.595Z,73.71
2018-06-28T06:14:39.659Z,74.32
2018-06-28T06:15:47.709Z,73.94
2018-06-28T06:16:55.785Z,74.70
2018-06-28T06:18:03.861Z,74.90
2018-06-28T06:19:11.940Z,74.51
2018-06-28T06:20:20.056Z,74.80
2018-06-28T06:21:28.052Z,74.61
2018-06-28T06:22:36.131Z,75.18
2018-06-28T06:23:44.201Z,75.18
2018-06-28T06:24:52.271Z,74.99
2018-06-28T06:26:00.338Z,74.61
2018-06-28T06:27:08.400Z,74.13
2018-06-28T06:28:16.481Z,74.70
2018-06-28T06:29:24.585Z,74.90
2018-06-28T06:30:32.594Z,75.09
2018-06-28T06:31:40.672Z,75.18
2018-06-28T06:32:48.745Z,74.26
2018-06-28T06:33:56.780Z,73.50
2018-06-28T06:35:04.866Z,74.55
2018-06-28T06:36:12.929Z,73.40
2018-06-28T06:37:20.993Z,73.69
2018-06-28T06:38:29.068Z,74.55
2018-06-28T06:39:37.108Z,73.97
2018-06-28T06:40:45.220Z,73.21
2018-06-28T06:41:53.271Z,72.25
2018-06-28T06:43:01.327Z,72.54
2018-06-28T06:44:09.393Z,72.38
2018-06-28T06:45:17.441Z,72.44
2018-06-28T06:46:25.652Z,73.15
2018-06-28T06:47:33.599Z,73.63
2018-06-28T06:48:41.676Z,72.48
2018-06-28T06:49:49.741Z,73.44
2018-06-28T06:50:57.807Z,72.86
2018-06-28T06:52:05.872Z,72.29
2018-06-28T06:53:13.945Z,72.77
2018-06-28T06:54:22.007Z,73.05
2018-06-28T06:55:30.092Z,72.48
2018-06-28T06:56:38.158Z,72.13
2018-06-28T06:57:46.218Z,72.58
2018-06-28T06:58:54.285Z,72.71
2018-06-28T07:00:02.357Z,72.23
2018-06-28T07:01:10.398Z,72.52
2018-06-28T07:02:18.480Z,72.99
2018-06-28T07:03:26.575Z,72.13
2018-06-28T07:04:34.629Z,71.37
2018-06-28T07:05:42.790Z,70.54
2018-06-28T07:06:50.762Z,70.73
2018-06-28T07:08:00.854Z,67.95
2018-06-28T07:09:13.955Z,68.66
2018-06-28T07:10:17.225Z,69.71
2018-06-28T07:11:27.639Z,66.39
2018-06-28T07:12:35.703Z,66.00
2018-06-28T07:13:43.778Z,66.23
2018-06-28T07:14:51.847Z,64.98
2018-06-28T07:15:59.967Z,63.67
2018-06-28T07:17:08.000Z,63.02
2018-06-28T07:18:16.056Z,63.51
2018-06-28T07:19:24.129Z,62.29
2018-06-28T07:20:32.206Z,61.23
2018-06-28T07:21:40.279Z,61.33
2018-06-28T07:22:48.377Z,62.03
2018-06-28T07:23:56.428Z,60.81
2018-06-28T07:25:04.504Z,61.00
2018-06-28T07:26:12.559Z,61.13
2018-06-28T07:27:20.637Z,59.88
2018-06-28T07:28:28.752Z,60.36
2018-06-28T07:29:36.763Z,59.23
2018-06-28T07:30:44.863Z,56.47
2018-06-28T07:31:52.941Z,55.12
2018-06-28T07:33:01.076Z,55.31
2018-06-28T07:34:09.252Z,55.51
2018-06-28T07:35:17.134Z,55.02
2018-06-28T07:36:25.237Z,54.78
2018-06-28T07:37:33.314Z,55.00
2018-06-28T07:38:41.391Z,54.54
2018-06-28T07:39:49.466Z,51.80
2018-06-28T07:40:57.523Z,50.57
2018-06-28T07:42:05.632Z,51.15
2018-06-28T07:43:13.698Z,49.73
2018-06-28T07:44:21.794Z,48.86
2018-06-28T07:45:29.851Z,48.79
2018-06-28T07:46:40.151Z,49.58
2018-06-28T07:49:01.629Z,47.69
2018-06-28T07:50:09.642Z,45.40
2018-06-28T07:51:17.689Z,44.06
2018-06-28T07:52:25.775Z,45.03
2018-06-28T07:53:33.876Z,46.48
2018-06-28T07:54:41.950Z,49.60
2018-06-28T07:55:50.022Z,49.68
2018-06-28T07:56:58.105Z,49.75
2018-06-28T07:58:06.185Z,52.43
2018-06-28T07:59:14.252Z,53.17
2018-06-28T08:00:22.340Z,53.08
2018-06-28T08:01:30.425Z,52.79
2018-06-28T08:02:38.546Z,52.76
2018-06-28T08:03:46.555Z,53.05
2018-06-28T08:04:54.646Z,53.89
2018-06-28T08:06:02.721Z,54.09
2018-06-28T08:07:10.800Z,55.51
2018-06-28T08:08:18.877Z,55.22
2018-06-28T08:09:26.930Z,56.35
2018-06-28T08:10:35.036Z,56.73
2018-06-28T08:11:43.107Z,56.73
2018-06-28T08:12:51.188Z,53.31
2018-06-28T08:13:59.254Z,52.40
2018-06-28T08:15:07.308Z,53.69
2018-06-28T08:16:15.412Z,49.55
2018-06-28T08:17:23.473Z,48.32
2018-06-28T08:18:31.565Z,48.44
2018-06-28T08:19:39.638Z,47.21
2018-06-28T08:20:47.706Z,45.68
2018-06-28T08:21:55.789Z,48.18
2018-06-28T08:23:03.868Z,47.91
2018-06-28T08:24:11.945Z,44.96
2018-06-28T08:25:20.025Z,46.12
2018-06-28T08:26:28.095Z,45.34
2018-06-28T08:27:36.182Z,46.87
2018-06-28T08:28:45.280Z,44.67
2018-06-28T08:29:53.338Z,43.87
2018-06-28T08:31:01.438Z,46.58
2018-06-28T08:32:09.509Z,46.60
2018-06-28T08:33:17.560Z,44.01
2018-06-28T08:34:25.666Z,45.10
2018-06-28T08:35:33.742Z,44.06
2018-06-28T08:36:41.821Z,44.88
2018-06-28T08:37:49.914Z,42.85
2018-06-28T08:38:57.996Z,45.71
2018-06-28T08:40:06.071Z,47.31
2018-06-28T08:41:14.165Z,49.51
2018-06-28T08:42:22.217Z,46.05
2018-06-28T08:43:30.321Z,47.77
2018-06-28T08:44:38.398Z,47.79
2018-06-28T08:45:46.474Z,47.21
2018-06-28T08:46:54.561Z,47.81
2018-06-28T08:48:02.635Z,47.72
2018-06-28T08:49:10.713Z,45.10
2018-06-28T08:50:18.781Z,48.27
2018-06-28T08:51:26.857Z,47.50
2018-06-28T08:52:34.948Z,48.35
2018-06-28T08:53:43.030Z,47.41
2018-06-28T08:54:51.123Z,47.38
2018-06-28T08:55:59.200Z,47.21
2018-06-28T08:57:07.246Z,46.53
2018-06-28T08:58:15.412Z,45.66
2018-06-28T08:59:23.442Z,48.47
2018-06-28T09:00:31.527Z,46.94
2018-06-28T09:01:39.592Z,44.54
2018-06-28T09:02:47.680Z,44.26
2018-06-28T09:03:55.770Z,47.45
2018-06-28T09:05:03.852Z,45.32
2018-06-28T09:06:11.940Z,46.02
2018-06-28T09:07:20.006Z,43.91
2018-06-28T09:08:28.098Z,47.50
2018-06-28T09:09:36.178Z,45.57
2018-06-28T09:10:44.268Z,47.99
2018-06-28T09:11:52.352Z,46.34
2018-06-28T09:13:00.425Z,46.44
2018-06-28T09:14:08.513Z,48.25
2018-06-28T09:15:16.620Z,46.42
2018-06-28T09:16:24.666Z,46.88
2018-06-28T09:17:32.748Z,51.20
2018-06-28T09:18:40.834Z,48.61
2018-06-28T09:19:48.907Z,47.36
2018-06-28T09:20:56.974Z,47.38
2018-06-28T09:22:05.089Z,45.54
2018-06-28T09:23:13.158Z,47.28
2018-06-28T09:24:21.249Z,46.44
2018-06-28T09:25:29.323Z,47.77
2018-06-28T09:26:37.379Z,48.23
2018-06-28T09:27:45.499Z,49.77
2018-06-28T09:28:53.576Z,48.23
2018-06-28T09:30:01.669Z,49.46
2018-06-28T09:31:09.746Z,49.29
2018-06-28T09:32:17.816Z,49.27
2018-06-28T09:33:25.893Z,50.23
2018-06-28T09:34:33.974Z,49.80
2018-06-28T09:35:42.060Z,50.67
2018-06-28T09:36:50.140Z,52.01
2018-06-28T09:37:58.215Z,49.99
2018-06-28T09:39:06.291Z,51.20
2018-06-28T09:40:14.361Z,52.83
2018-06-28T09:41:22.447Z,55.05
2018-06-28T09:42:30.523Z,52.83
2018-06-28T09:43:38.602Z,53.80
2018-06-28T09:44:46.671Z,51.80
2018-06-28T09:45:54.752Z,53.15
2018-06-28T09:47:02.835Z,53.44
2018-06-28T09:48:10.895Z,50.96
2018-06-28T09:49:18.977Z,52.95
2018-06-28T09:50:27.016Z,53.37
2018-06-28T09:51:35.134Z,51.44
2018-06-28T09:52:43.202Z,50.86
2018-06-28T09:53:51.276Z,52.28
2018-06-28T09:54:59.378Z,55.63
2018-06-28T09:56:07.387Z,51.89
2018-06-28T09:57:15.496Z,52.86
2018-06-28T09:58:23.582Z,52.83
2018-06-28T09:59:31.658Z,51.87
2018-06-28T10:00:39.725Z,53.70
2018-06-28T10:01:47.797Z,54.96
2018-06-28T10:02:55.881Z,54.88
2018-06-28T10:04:03.953Z,51.80
2018-06-28T10:05:12.024Z,51.12
2018-06-28T10:06:20.092Z,50.35
2018-06-28T10:07:28.162Z,51.94
2018-06-28T10:08:36.234Z,53.77
2018-06-28T10:09:44.311Z,54.64
2018-06-28T10:10:52.388Z,55.41
2018-06-28T10:12:00.453Z,55.34
2018-06-28T10:13:08.594Z,53.41
2018-06-28T10:14:16.597Z,51.80
2018-06-28T10:15:24.671Z,51.63
2018-06-28T10:16:32.756Z,53.92
2018-06-28T10:17:40.832Z,52.50
2018-06-28T10:18:48.907Z,54.33
2018-06-28T10:19:56.961Z,52.89
2018-06-28T10:21:05.050Z,50.67
2018-06-28T10:22:13.108Z,51.15
2018-06-28T10:23:21.182Z,50.38
2018-06-28T10:24:29.361Z,52.50
2018-06-28T10:25:37.316Z,52.79
2018-06-28T10:26:45.406Z,49.73
2018-06-28T10:27:53.482Z,50.59
2018-06-28T10:29:01.549Z,51.07
2018-06-28T10:30:09.637Z,50.79
2018-06-28T10:31:17.695Z,52.23
2018-06-28T10:32:25.772Z,49.73
2018-06-28T10:33:33.835Z,52.21
2018-06-28T10:34:41.926Z,50.96
2018-06-28T10:35:49.989Z,50.67
2018-06-28T10:36:58.072Z,53.56
2018-06-28T10:38:06.133Z,53.27
2018-06-28T10:39:14.206Z,51.80
2018-06-28T10:40:22.287Z,52.67
2018-06-28T10:41:30.359Z,53.61
2018-06-28T10:42:38.437Z,54.47
2018-06-28T10:43:46.526Z,54.54
2018-06-28T10:44:54.575Z,54.74
2018-06-28T10:46:02.658Z,55.12
2018-06-28T10:47:10.724Z,56.85
2018-06-28T10:48:18.804Z,55.82
2018-06-28T10:49:26.862Z,54.57
2018-06-28T10:50:34.953Z,54.09
2018-06-28T10:51:43.014Z,54.38
2018-06-28T10:52:51.092Z,55.73
2018-06-28T10:53:59.167Z,55.44
2018-06-28T10:55:07.277Z,54.76
2018-06-28T10:56:15.295Z,56.18
2018-06-28T10:57:23.383Z,56.79
2018-06-28T10:58:31.449Z,55.73
2018-06-28T10:59:39.522Z,55.36
2018-06-28T11:00:47.591Z,55.63
2018-06-28T11:01:55.663Z,56.40
2018-06-28T11:03:03.748Z,55.73
2018-06-28T11:04:11.814Z,55.73
2018-06-28T11:05:19.891Z,55.99
2018-06-28T11:06:27.953Z,57.79
2018-06-28T11:07:36.107Z,58.27
2018-06-28T11:08:44.110Z,58.37
2018-06-28T11:09:52.172Z,59.14
2018-06-28T11:11:00.246Z,58.92
2018-06-28T11:12:08.324Z,59.69
2018-06-28T11:13:16.398Z,59.88
2018-06-28T11:15:36.763Z,59.97
2018-06-28T11:16:44.857Z,61.00
2018-06-28T11:17:52.935Z,62.41
2018-06-28T11:19:00.991Z,66.55
2018-06-28T11:20:09.070Z,68.98
2018-06-28T11:21:17.137Z,70.43
2018-06-28T11:22:25.204Z,71.06
2018-06-28T11:23:33.260Z,72.41
2018-06-28T11:24:41.341Z,72.31
2018-06-28T11:25:49.408Z,72.60
2018-06-28T11:26:57.477Z,72.69
2018-06-28T11:28:05.558Z,72.85
2018-06-28T11:29:13.644Z,73.52
2018-06-28T11:30:21.702Z,73.04
2018-06-28T11:31:29.788Z,73.14
2018-06-28T11:32:37.851Z,74.29
2018-06-28T11:33:46.087Z,74.01
2018-06-28T11:34:53.985Z,74.48
2018-06-28T11:36:02.074Z,73.72
2018-06-28T11:37:10.128Z,73.52
2018-06-28T11:38:18.199Z,74.10
2018-06-28T11:39:26.278Z,74.04
2018-06-28T11:40:34.330Z,73.66
2018-06-28T11:41:42.407Z,73.46
2018-06-28T11:42:50.474Z,73.46
2018-06-28T11:43:58.551Z,73.75
2018-06-28T11:45:06.617Z,73.75
2018-06-28T11:46:14.697Z,73.27
2018-06-28T11:47:22.760Z,74.62
2018-06-28T11:48:30.819Z,73.94
2018-06-28T11:49:38.891Z,73.85
2018-06-28T11:50:46.955Z,74.13
2018-06-28T11:51:55.033Z,73.37
2018-06-28T11:53:03.101Z,73.46
2018-06-28T11:54:11.173Z,73.66
2018-06-28T11:55:19.250Z,73.66
2018-06-28T11:56:27.296Z,74.01
2018-06-28T11:57:35.499Z,74.04
2018-06-28T11:58:43.483Z,73.56
2018-06-28T11:59:51.530Z,72.99
2018-06-28T12:00:59.599Z,73.41
2018-06-28T12:02:07.662Z,72.44
2018-06-28T12:03:15.735Z,71.81
2018-06-28T12:04:23.806Z,71.91
2018-06-28T12:05:31.947Z,71.29
2018-06-28T12:06:39.961Z,72.44
2018-06-28T12:07:48.028Z,72.44
2018-06-28T12:08:56.097Z,72.16
2018-06-28T12:10:04.160Z,71.58
2018-06-28T12:11:12.230Z,71.67
2018-06-28T12:12:20.313Z,71.96
2018-06-28T12:13:28.376Z,72.16
2018-06-28T12:14:36.456Z,71.58
2018-06-28T12:15:44.522Z,71.61
2018-06-28T12:16:52.592Z,70.27
2018-06-28T12:18:00.658Z,68.86
2018-06-28T12:19:08.733Z,68.76
2018-06-28T12:20:16.792Z,68.67
2018-06-28T12:21:24.879Z,67.93
2018-06-28T12:22:32.939Z,68.22
2018-06-28T12:23:41.017Z,67.83
2018-06-28T12:24:49.094Z,66.78
2018-06-28T12:25:57.139Z,66.14
2018-06-28T12:27:05.229Z,66.88
2018-06-28T12:28:13.295Z,66.97
2018-06-28T12:29:21.381Z,66.52
2018-06-28T12:30:29.446Z,68.26
2018-06-28T12:31:37.497Z,67.03
2018-06-28T12:32:45.597Z,64.92
2018-06-28T12:33:53.664Z,64.34
2018-06-28T12:35:01.716Z,64.43
2018-06-28T12:36:09.807Z,65.72
2018-06-28T12:37:17.876Z,64.56
2018-06-28T12:38:25.961Z,63.15
2018-06-28T12:39:34.025Z,62.28
2018-06-28T12:40:42.118Z,61.41
2018-06-28T12:41:50.157Z,62.57
2018-06-28T12:42:58.233Z,62.60
2018-06-28T12:44:06.315Z,63.09
2018-06-28T12:45:14.395Z,60.71
2018-06-28T12:46:22.490Z,59.93
2018-06-28T12:47:30.529Z,59.96
2018-06-28T12:48:38.606Z,59.38
2018-06-28T12:49:48.711Z,59.32
2018-06-28T12:50:54.742Z,59.32
2018-06-28T12:52:02.823Z,57.65
2018-06-28T12:53:10.903Z,59.36
2018-06-28T12:54:19.028Z,58.88
2018-06-28T12:55:27.016Z,58.01
2018-06-28T12:56:35.112Z,60.13
2018-06-28T12:57:44.383Z,61.29
2018-06-28T12:58:52.447Z,59.97
2018-06-28T13:00:00.569Z,60.86
2018-06-28T13:01:08.594Z,60.03
2018-06-28T13:02:18.484Z,57.45
2018-06-28T13:03:26.551Z,55.55
2018-06-28T13:04:34.634Z,55.38
2018-06-28T13:05:42.700Z,54.99
2018-06-28T13:06:50.780Z,53.45
2018-06-28T13:07:58.852Z,55.90
2018-06-28T13:09:06.925Z,56.68
2018-06-28T13:10:14.988Z,56.07
2018-06-28T13:11:23.074Z,56.36
2018-06-28T13:12:31.140Z,56.52
2018-06-28T13:13:39.266Z,56.98
2018-06-28T13:14:47.257Z,58.78
2018-06-28T13:15:55.362Z,58.40
2018-06-28T13:17:03.429Z,59.65
2018-06-28T13:18:11.513Z,59.84
2018-06-28T13:19:19.580Z,60.06
2018-06-28T13:20:27.709Z,59.30
2018-06-28T13:21:35.736Z,58.94
2018-06-28T13:22:43.799Z,59.93
2018-06-28T13:23:51.861Z,57.52
2018-06-28T13:24:59.940Z,58.19
2018-06-28T13:26:08.022Z,57.35
2018-06-28T13:27:16.090Z,56.68
2018-06-28T13:29:36.461Z,57.42
2018-06-28T13:30:44.544Z,58.36
2018-06-28T13:31:52.624Z,58.55
2018-06-28T13:33:00.698Z,58.75
2018-06-28T13:34:08.766Z,60.00
2018-06-28T13:35:16.803Z,56.72
2018-06-28T13:36:24.924Z,58.42
2018-06-28T13:37:32.982Z,57.07
2018-06-28T13:38:41.056Z,57.56
2018-06-28T13:39:49.118Z,57.37
2018-06-28T13:40:57.213Z,58.11
2018-06-28T13:42:05.350Z,57.24
2018-06-28T13:43:13.324Z,58.78
2018-06-28T13:44:21.454Z,59.39
2018-06-28T13:45:29.490Z,55.92
2018-06-28T13:46:37.532Z,56.57
2018-06-28T13:47:45.641Z,57.27
2018-06-28T13:48:53.700Z,57.62
2018-06-28T13:50:01.806Z,56.66
2018-06-28T13:51:09.839Z,56.95
2018-06-28T13:52:17.916Z,57.43
2018-06-28T13:53:25.989Z,57.53
2018-06-28T13:54:34.062Z,57.14
2018-06-28T13:55:42.157Z,55.89
2018-06-28T13:56:50.204Z,55.73
2018-06-28T13:57:58.271Z,55.63
2018-06-28T13:59:06.344Z,56.59
2018-06-28T14:00:14.416Z,56.30
2018-06-28T14:01:22.487Z,57.78
2018-06-28T14:02:30.577Z,56.24
2018-06-28T14:03:38.637Z,55.88
2018-06-28T14:04:46.709Z,56.24
2018-06-28T14:05:54.786Z,56.69
2018-06-28T14:07:02.874Z,57.62
2018-06-28T14:08:10.930Z,58.11
2018-06-28T14:09:19.057Z,59.17
2018-06-28T14:10:27.055Z,57.24
2018-06-28T14:11:35.148Z,59.55
2018-06-28T14:12:46.441Z,57.53
2018-06-28T14:13:52.497Z,58.47
2018-06-28T14:15:07.686Z,59.49
2018-06-28T14:16:09.239Z,58.82
2018-06-28T14:17:17.288Z,60.07
2018-06-28T14:18:25.387Z,61.13
2018-06-28T14:19:33.466Z,59.11
2018-06-28T14:20:41.543Z,58.27
2018-06-28T14:21:49.586Z,58.78
2018-06-28T14:22:57.668Z,57.34
2018-06-28T14:24:05.741Z,57.43
2018-06-28T14:25:13.817Z,59.17
2018-06-28T14:26:21.893Z,57.53
2018-06-28T14:27:30.011Z,59.75
2018-06-28T14:28:38.049Z,57.72
2018-06-28T14:29:46.109Z,59.17
2018-06-28T14:30:54.179Z,58.01
2018-06-28T14:32:02.252Z,58.69
2018-06-28T14:33:10.314Z,58.49
2018-06-28T14:35:30.892Z,56.21
2018-06-28T14:36:38.980Z,55.73
2018-06-28T14:37:47.024Z,55.24
2018-06-28T14:38:55.110Z,56.30
2018-06-28T14:40:03.195Z,55.34
2018-06-28T14:41:11.259Z,55.34